weather.gov     
National Weather Service

Terminal Aerodrome Forecast
NWS Homepage
This page is being discontinued on March 12, 2014.
The same data is available at this site. Please update your bookmarks.
Thank you, and we apologize for the inconvenience.
Please send an email to SR-SRH.Webmaster@noaa.gov with any concerns.


Current Version
Previous Version:    01  02  03  04  05  06  07  08  09  10  11  12  13  14  15  16  17  18  19  20  21  22  23  24  25  26  27  28  29  30  
   31  32  33  
[Printable]
316
FTUS43 KDMX 170213 AAB
TAFFOD
TAF AMD
KFOD 170213Z 1702/1724 34014KT P6SM BKN040 OVC080
     FM170300 33014KT P6SM SCT007 BKN012
      TEMPO 1703/1705 BKN008
     FM170600 32010KT P6SM SCT012 BKN022
     FM171400 33011KT P6SM FEW020 SCT250=




316
FTUS43 KDMX 170213 AAB
TAFFOD
TAF AMD
KFOD 170213Z 1702/1724 34014KT P6SM BKN040 OVC080
     FM170300 33014KT P6SM SCT007 BKN012
      TEMPO 1703/1705 BKN008
     FM170600 32010KT P6SM SCT012 BKN022
     FM171400 33011KT P6SM FEW020 SCT250=


U.S. Dept. of Commerce
NOAA National Weather Service
1325 East West Highway
Silver Spring, MD 20910
E-mail: w-nws.webmaster@noaa.gov
Page last modified: May 16, 2007
NATIONAL WEATHER SERVICE: for Safety, for Work, for Fun - FOR LIFE